createdAt,value
2023-04-10T00:01:09.009Z,94.49
2023-04-10T00:03:47.050Z,94.61
2023-04-10T00:06:19.943Z,94.71
2023-04-10T00:08:47.139Z,94.76
2023-04-10T00:11:14.095Z,94.89
2023-04-10T00:13:43.404Z,94.97
2023-04-10T00:16:10.948Z,94.87
2023-04-10T00:18:37.885Z,95.06
2023-04-10T00:21:05.551Z,95.25
2023-04-10T00:23:39.091Z,95.11
2023-04-10T00:26:12.157Z,95.11
2023-04-10T00:28:42.932Z,95.03
2023-04-10T00:31:18.496Z,95.31
2023-04-10T00:33:57.452Z,95.24
2023-04-10T00:36:28.338Z,95.37
2023-04-10T00:38:56.262Z,95.31
2023-04-10T00:41:28.863Z,95.43
2023-04-10T00:43:56.662Z,95.30
2023-04-10T00:46:23.855Z,95.33
2023-04-10T00:48:54.942Z,95.36
2023-04-10T00:51:22.482Z,95.34
2023-04-10T00:53:52.116Z,95.33
2023-04-10T00:56:20.209Z,95.50
2023-04-10T00:58:48.629Z,95.35
2023-04-10T01:01:15.506Z,95.35
2023-04-10T01:03:43.223Z,95.39
2023-04-10T01:06:38.153Z,95.50
2023-04-10T01:09:17.599Z,95.71
2023-04-10T01:12:21.423Z,95.64
2023-04-10T01:15:03.661Z,95.53
2023-04-10T01:17:50.627Z,95.53
2023-04-10T01:20:22.981Z,95.26
2023-04-10T01:23:47.717Z,95.59
2023-04-10T01:26:16.758Z,95.65
2023-04-10T01:28:53.252Z,95.71
2023-04-10T01:31:41.959Z,95.88
2023-04-10T01:34:16.271Z,95.98
2023-04-10T01:36:49.869Z,96.20
2023-04-10T01:39:18.615Z,96.37
2023-04-10T01:41:45.471Z,96.57
2023-04-10T01:44:14.644Z,96.52
2023-04-10T01:46:43.368Z,96.58
2023-04-10T01:49:11.395Z,96.57
2023-04-10T01:51:39.413Z,96.66
2023-04-10T01:54:13.793Z,97.01
2023-04-10T01:56:41.413Z,96.82
2023-04-10T01:59:08.477Z,96.64
2023-04-10T02:01:35.468Z,97.13
2023-04-10T02:04:03.080Z,97.00
2023-04-10T02:06:49.148Z,97.12
2023-04-10T02:09:45.610Z,97.38
2023-04-10T02:12:25.151Z,97.30
2023-04-10T02:14:58.666Z,97.60
2023-04-10T02:17:28.000Z,97.43
2023-04-10T02:19:58.196Z,97.55
2023-04-10T02:22:25.214Z,97.49
2023-04-10T02:24:53.603Z,97.61
2023-04-10T02:27:32.522Z,97.83
2023-04-10T02:30:02.835Z,97.80
2023-04-10T02:32:34.985Z,97.91
2023-04-10T02:35:02.636Z,97.97
2023-04-10T02:37:30.788Z,98.12
2023-04-10T02:39:59.148Z,98.20
2023-04-10T02:42:30.518Z,98.24
2023-04-10T02:44:58.665Z,98.19
2023-04-10T02:47:26.374Z,98.27
2023-04-10T02:49:53.562Z,98.33
2023-04-10T02:52:20.925Z,98.26
2023-04-10T02:54:48.636Z,98.32
2023-04-10T02:57:15.944Z,98.13
2023-04-10T02:59:42.888Z,98.31
2023-04-10T03:02:09.941Z,98.26
2023-04-10T03:04:37.114Z,98.29
2023-04-10T03:07:05.763Z,98.19
2023-04-10T03:09:33.111Z,98.17
2023-04-10T03:12:01.529Z,98.30
2023-04-10T03:14:28.477Z,98.08
2023-04-10T03:16:55.565Z,98.13
2023-04-10T03:19:22.833Z,98.00
2023-04-10T03:21:49.845Z,98.17
2023-04-10T03:24:16.940Z,98.12
2023-04-10T03:26:44.435Z,98.01
2023-04-10T03:29:12.028Z,97.95
2023-04-10T03:31:41.649Z,97.90
2023-04-10T03:34:09.118Z,97.84
2023-04-10T03:36:38.025Z,97.82
2023-04-10T03:39:05.392Z,97.73
2023-04-10T03:41:32.759Z,97.65
2023-04-10T03:44:02.665Z,97.62
2023-04-10T03:46:30.422Z,97.70
2023-04-10T03:48:57.547Z,97.81
2023-04-10T03:51:24.842Z,97.54
2023-04-10T03:53:52.337Z,97.53
2023-04-10T03:56:20.264Z,97.62
2023-04-10T03:58:47.822Z,97.64
2023-04-10T04:01:15.114Z,97.58
2023-04-10T04:04:01.118Z,97.29
2023-04-10T04:06:51.326Z,97.30
2023-04-10T04:09:29.945Z,97.21
2023-04-10T04:12:30.151Z,97.37
2023-04-10T04:15:09.892Z,97.11
2023-04-10T04:18:09.939Z,97.16
2023-04-10T04:20:48.202Z,97.18
2023-04-10T04:23:36.800Z,97.31
2023-04-10T04:26:03.770Z,97.25
2023-04-10T04:28:53.733Z,97.08
2023-04-10T04:31:20.640Z,97.05
2023-04-10T04:34:12.592Z,97.15
2023-04-10T04:36:59.269Z,97.14
2023-04-10T04:39:35.355Z,97.05
2023-04-10T04:42:05.159Z,97.01
2023-04-10T04:44:55.366Z,96.75
2023-04-10T04:47:40.810Z,96.58
2023-04-10T04:50:28.830Z,96.67
2023-04-10T04:52:56.205Z,96.58
2023-04-10T04:55:31.642Z,96.66
2023-04-10T04:58:20.671Z,96.54
2023-04-10T05:01:12.399Z,96.31
2023-04-10T05:04:08.801Z,96.45
2023-04-10T05:06:56.104Z,96.24
2023-04-10T05:09:44.088Z,96.18
2023-04-10T05:12:20.965Z,96.14
2023-04-10T05:14:59.305Z,96.02
2023-04-10T05:17:38.900Z,95.59
2023-04-10T05:20:28.794Z,95.35
2023-04-10T05:23:41.504Z,95.03
2023-04-10T05:26:32.123Z,94.66
2023-04-10T05:29:31.362Z,94.12
2023-04-10T05:32:17.641Z,93.83
2023-04-10T05:35:00.217Z,93.71
2023-04-10T05:37:45.007Z,93.51
2023-04-10T05:40:44.608Z,93.44
2023-04-10T05:43:35.979Z,93.35
2023-04-10T05:46:41.579Z,93.18
2023-04-10T05:49:24.424Z,93.12
2023-04-10T05:52:01.463Z,93.04
2023-04-10T05:54:46.853Z,92.95
2023-04-10T05:57:13.690Z,92.90
2023-04-10T05:59:59.466Z,92.79
2023-04-10T06:02:41.988Z,92.81
2023-04-10T06:05:15.083Z,92.67
2023-04-10T06:07:42.525Z,92.56
2023-04-10T06:10:10.116Z,92.63
2023-04-10T06:12:37.373Z,92.68
2023-04-10T06:15:07.084Z,92.77
2023-04-10T06:17:43.063Z,92.89
2023-04-10T06:20:11.449Z,92.85
2023-04-10T06:22:41.517Z,92.83
2023-04-10T06:25:10.908Z,92.63
2023-04-10T06:27:37.902Z,92.53
2023-04-10T06:30:10.886Z,92.37
2023-04-10T06:32:39.763Z,92.46
2023-04-10T06:35:06.862Z,92.26
2023-04-10T06:37:35.684Z,92.08
2023-04-10T06:40:06.760Z,92.23
2023-04-10T06:42:33.949Z,92.27
2023-04-10T06:45:07.770Z,92.33
2023-04-10T06:47:34.876Z,92.43
2023-04-10T06:50:03.378Z,92.85
2023-04-10T06:52:31.678Z,93.32
2023-04-10T06:54:58.473Z,93.72
2023-04-10T06:57:25.262Z,93.93
2023-04-10T06:59:55.654Z,94.08
2023-04-10T07:02:22.832Z,94.26
2023-04-10T07:04:49.789Z,94.22
2023-04-10T07:07:19.093Z,94.10
2023-04-10T07:09:46.012Z,94.04
2023-04-10T07:12:13.170Z,94.28
2023-04-10T07:14:43.127Z,94.50
2023-04-10T07:17:11.994Z,94.69
2023-04-10T07:19:38.804Z,94.79
2023-04-10T07:22:12.036Z,94.94
2023-04-10T07:24:41.823Z,95.06
2023-04-10T07:27:08.688Z,95.14
2023-04-10T07:29:36.982Z,95.27
2023-04-10T07:32:06.489Z,95.19
2023-04-10T07:34:34.050Z,95.17
2023-04-10T07:37:03.873Z,95.44
2023-04-10T07:39:33.876Z,95.48
2023-04-10T07:42:00.900Z,95.65
2023-04-10T07:44:30.474Z,95.89
2023-04-10T07:46:58.404Z,96.22
2023-04-10T07:49:25.324Z,96.41
2023-04-10T07:51:52.425Z,96.50
2023-04-10T07:54:19.252Z,96.72
2023-04-10T07:56:46.368Z,96.99
2023-04-10T07:59:13.367Z,97.15
2023-04-10T08:01:41.465Z,97.00
2023-04-10T08:04:08.727Z,97.10
2023-04-10T08:06:36.803Z,97.04
2023-04-10T08:09:03.679Z,97.00
2023-04-10T08:11:32.499Z,96.87
2023-04-10T08:14:01.230Z,96.75
2023-04-10T08:16:30.491Z,96.76
2023-04-10T08:18:58.338Z,96.78
2023-04-10T08:21:26.771Z,96.72
2023-04-10T08:23:54.325Z,96.77
2023-04-10T08:26:21.419Z,96.53
2023-04-10T08:28:50.367Z,96.52
2023-04-10T08:31:20.607Z,96.91
2023-04-10T08:33:47.677Z,96.83
2023-04-10T08:36:19.825Z,96.63
2023-04-10T08:38:47.583Z,96.47
2023-04-10T08:41:16.194Z,96.52
2023-04-10T08:43:49.051Z,96.37
2023-04-10T08:46:16.312Z,96.26
2023-04-10T08:48:59.525Z,96.35
2023-04-10T08:52:00.582Z,96.14
2023-04-10T08:54:28.502Z,95.96
2023-04-10T08:56:58.008Z,95.68
2023-04-10T08:59:25.015Z,95.74
2023-04-10T09:01:52.889Z,95.50
2023-04-10T09:04:20.393Z,95.37
2023-04-10T09:06:48.393Z,95.08
2023-04-10T09:09:19.112Z,94.67
2023-04-10T09:11:51.961Z,94.49
2023-04-10T09:14:20.863Z,94.68
2023-04-10T09:16:50.920Z,94.63
2023-04-10T09:19:31.203Z,94.37
2023-04-10T09:21:58.399Z,94.09
2023-04-10T09:24:25.453Z,93.82
2023-04-10T09:26:53.052Z,93.57
2023-04-10T09:29:20.536Z,93.44
2023-04-10T09:31:50.846Z,92.72
2023-04-10T09:34:21.793Z,92.21
2023-04-10T09:36:54.742Z,91.57
2023-04-10T09:39:35.550Z,90.75
2023-04-10T09:42:03.015Z,89.55
2023-04-10T09:44:32.172Z,88.71
2023-04-10T09:47:21.371Z,88.41
2023-04-10T09:49:53.593Z,88.35
2023-04-10T09:52:32.875Z,88.55
2023-04-10T09:55:09.224Z,88.84
2023-04-10T09:57:36.188Z,89.43
2023-04-10T10:00:09.985Z,89.83
2023-04-10T10:02:41.733Z,90.04
2023-04-10T10:05:10.367Z,90.15
2023-04-10T10:07:41.338Z,89.80
2023-04-10T10:10:08.549Z,89.58
2023-04-10T10:13:00.471Z,88.78
2023-04-10T10:15:27.209Z,87.95
2023-04-10T10:18:03.799Z,87.00
2023-04-10T10:20:31.510Z,86.39
2023-04-10T10:22:58.599Z,85.53
2023-04-10T10:25:25.935Z,84.76
2023-04-10T10:27:53.075Z,83.86
2023-04-10T10:30:29.632Z,83.38
2023-04-10T10:32:58.267Z,83.37
2023-04-10T10:35:31.377Z,81.85
2023-04-10T10:38:03.973Z,80.79
2023-04-10T10:40:45.604Z,79.70
2023-04-10T10:44:06.482Z,78.92
2023-04-10T10:46:50.637Z,78.07
2023-04-10T10:49:17.460Z,77.78
2023-04-10T10:51:48.634Z,78.24
2023-04-10T10:54:31.803Z,78.53
2023-04-10T10:57:08.550Z,77.76
2023-04-10T10:59:47.945Z,77.26
2023-04-10T11:02:19.060Z,77.56
2023-04-10T11:04:47.788Z,77.10
2023-04-10T11:07:15.388Z,76.87
2023-04-10T11:09:53.294Z,76.68
2023-04-10T11:12:23.651Z,76.71
2023-04-10T11:15:06.252Z,76.95
2023-04-10T11:17:50.630Z,76.70
2023-04-10T11:20:21.308Z,76.39
2023-04-10T11:23:10.655Z,75.84
2023-04-10T11:25:46.326Z,75.55
2023-04-10T11:28:32.305Z,75.20
2023-04-10T11:31:21.226Z,74.74
2023-04-10T11:34:09.968Z,74.69
2023-04-10T11:36:41.316Z,74.70
2023-04-10T11:39:20.962Z,74.95
2023-04-10T11:41:51.673Z,75.33
2023-04-10T11:44:34.755Z,75.88
2023-04-10T11:47:01.869Z,76.58
2023-04-10T11:49:33.827Z,77.03
2023-04-10T11:52:02.832Z,77.76
2023-04-10T11:54:30.695Z,77.93
2023-04-10T11:57:00.851Z,77.73
2023-04-10T11:59:28.035Z,77.39
2023-04-10T12:02:14.306Z,77.35
2023-04-10T12:04:43.295Z,77.10
2023-04-10T12:07:11.292Z,76.70
2023-04-10T12:09:38.213Z,75.52
2023-04-10T12:12:11.994Z,74.12
2023-04-10T12:14:41.913Z,71.20
2023-04-10T12:17:12.423Z,70.36
2023-04-10T12:19:52.860Z,69.95
2023-04-10T12:22:19.995Z,70.08
2023-04-10T12:24:49.406Z,69.73
2023-04-10T12:27:18.346Z,69.31
2023-04-10T12:29:46.195Z,68.44
2023-04-10T12:32:13.179Z,67.53
2023-04-10T12:34:40.321Z,66.38
2023-04-10T12:37:07.410Z,65.61
2023-04-10T12:39:36.749Z,65.53
2023-04-10T12:42:20.579Z,66.30
2023-04-10T12:45:00.407Z,67.63
2023-04-10T12:47:28.313Z,68.84
2023-04-10T12:50:11.145Z,68.60
2023-04-10T12:52:40.757Z,67.86
2023-04-10T12:55:14.169Z,68.67
2023-04-10T12:57:42.264Z,69.99
2023-04-10T13:00:10.537Z,70.85
2023-04-10T13:02:39.174Z,71.37
2023-04-10T13:05:07.311Z,71.92
2023-04-10T13:07:35.892Z,72.43
2023-04-10T13:10:03.080Z,73.05
2023-04-10T13:12:34.156Z,73.53
2023-04-10T13:15:02.357Z,73.85
2023-04-10T13:17:29.842Z,73.90
2023-04-10T13:19:57.882Z,73.85
2023-04-10T13:22:25.107Z,74.15
2023-04-10T13:24:52.079Z,74.88
2023-04-10T13:27:24.583Z,75.48
2023-04-10T13:29:51.526Z,76.13
2023-04-10T13:32:18.518Z,76.76
2023-04-10T13:34:46.353Z,77.28
2023-04-10T13:37:14.835Z,77.69
2023-04-10T13:39:43.220Z,77.94
2023-04-10T13:42:11.544Z,78.22
2023-04-10T13:44:39.638Z,77.69
2023-04-10T13:47:07.520Z,75.88
2023-04-10T13:49:36.374Z,73.74
2023-04-10T13:52:03.543Z,70.85
2023-04-10T13:54:31.322Z,67.82
2023-04-10T13:56:58.817Z,65.12
2023-04-10T13:59:27.170Z,63.09
2023-04-10T14:01:54.269Z,61.90
2023-04-10T14:04:21.783Z,61.00
2023-04-10T14:06:51.240Z,59.66
2023-04-10T14:09:19.099Z,59.33
2023-04-10T14:11:46.502Z,58.17
2023-04-10T14:14:14.234Z,58.36
2023-04-10T14:16:41.557Z,58.07
2023-04-10T14:19:08.665Z,57.19
2023-04-10T14:21:43.845Z,56.43
2023-04-10T14:24:10.842Z,55.61
2023-04-10T14:26:37.811Z,55.76
2023-04-10T14:29:07.987Z,55.98
2023-04-10T14:31:39.198Z,56.11
2023-04-10T14:34:12.088Z,56.35
2023-04-10T14:36:39.477Z,56.21
2023-04-10T14:39:06.849Z,56.85
2023-04-10T14:41:35.990Z,57.77
2023-04-10T14:44:02.967Z,58.38
2023-04-10T14:46:30.270Z,58.96
2023-04-10T14:48:57.159Z,59.39
2023-04-10T14:51:24.051Z,59.60
2023-04-10T14:53:52.690Z,59.87
2023-04-10T14:56:20.040Z,59.60
2023-04-10T14:58:47.724Z,59.46
2023-04-10T15:01:14.673Z,59.08
2023-04-10T15:03:41.579Z,58.03
2023-04-10T15:06:09.569Z,57.64
2023-04-10T15:08:36.708Z,57.71
2023-04-10T15:11:06.500Z,57.51
2023-04-10T15:13:34.053Z,57.09
2023-04-10T15:16:01.508Z,56.92
2023-04-10T15:18:29.121Z,56.75
2023-04-10T15:20:57.159Z,56.90
2023-04-10T15:23:25.301Z,56.73
2023-04-10T15:25:59.358Z,57.50
2023-04-10T15:28:27.640Z,58.38
2023-04-10T15:30:54.736Z,58.70
2023-04-10T15:33:23.469Z,58.81
2023-04-10T15:35:50.257Z,58.99
2023-04-10T15:38:17.391Z,59.28
2023-04-10T15:40:44.738Z,59.37
2023-04-10T15:43:13.583Z,59.11
2023-04-10T15:45:40.940Z,58.46
2023-04-10T15:48:08.354Z,57.89
2023-04-10T15:50:36.792Z,57.38
2023-04-10T15:53:03.833Z,56.95
2023-04-10T15:55:30.961Z,56.62
2023-04-10T15:57:59.423Z,56.25
2023-04-10T16:00:27.577Z,56.45
2023-04-10T16:02:54.738Z,56.57
2023-04-10T16:05:23.142Z,57.15
2023-04-10T16:07:51.498Z,58.16
2023-04-10T16:10:18.299Z,59.09
2023-04-10T16:12:48.025Z,59.84
2023-04-10T16:15:16.216Z,60.56
2023-04-10T16:17:43.355Z,61.07
2023-04-10T16:20:13.695Z,61.59
2023-04-10T16:22:41.869Z,62.35
2023-04-10T16:25:09.168Z,63.36
2023-04-10T16:27:37.879Z,64.21
2023-04-10T16:30:06.097Z,64.79
2023-04-10T16:32:34.689Z,65.65
2023-04-10T16:35:01.852Z,66.35
2023-04-10T16:37:29.586Z,66.79
2023-04-10T16:40:01.983Z,67.37
2023-04-10T16:42:30.409Z,67.84
2023-04-10T16:44:58.089Z,68.51
2023-04-10T16:47:27.483Z,68.85
2023-04-10T16:49:55.195Z,69.30
2023-04-10T16:52:23.198Z,69.78
2023-04-10T16:54:50.078Z,70.32
2023-04-10T16:57:17.081Z,70.85
2023-04-10T16:59:46.674Z,71.06
2023-04-10T17:02:14.354Z,71.45
2023-04-10T17:04:41.622Z,71.83
2023-04-10T17:07:10.177Z,72.24
2023-04-10T17:09:37.422Z,72.61
2023-04-10T17:12:04.385Z,72.89
2023-04-10T17:14:36.494Z,73.22
2023-04-10T17:17:03.482Z,73.50
2023-04-10T17:19:31.180Z,74.10
2023-04-10T17:21:58.049Z,74.74
2023-04-10T17:24:30.805Z,74.83
2023-04-10T17:26:57.782Z,74.92
2023-04-10T17:29:25.370Z,75.10
2023-04-10T17:31:52.385Z,75.29
2023-04-10T17:34:19.289Z,75.44
2023-04-10T17:36:49.375Z,75.69
2023-04-10T17:39:16.590Z,75.97
2023-04-10T17:41:43.393Z,76.35
2023-04-10T17:44:10.853Z,76.69
2023-04-10T17:46:37.688Z,76.85
2023-04-10T17:49:06.475Z,76.93
2023-04-10T17:51:34.229Z,76.84
2023-04-10T17:54:01.039Z,76.88
2023-04-10T17:56:28.782Z,76.96
2023-04-10T17:58:56.038Z,77.08
2023-04-10T18:01:25.240Z,77.33
2023-04-10T18:03:52.547Z,77.75
2023-04-10T18:06:19.657Z,78.06
2023-04-10T18:08:47.370Z,78.35
2023-04-10T18:11:14.447Z,78.52
2023-04-10T18:13:41.302Z,78.68
2023-04-10T18:16:13.949Z,78.94
2023-04-10T18:18:43.731Z,79.02
2023-04-10T18:21:10.736Z,79.17
2023-04-10T18:23:39.723Z,79.33
2023-04-10T18:26:06.770Z,79.40
2023-04-10T18:28:35.272Z,79.51
2023-04-10T18:31:02.226Z,79.69
2023-04-10T18:33:29.518Z,79.66
2023-04-10T18:35:58.155Z,79.72
2023-04-10T18:38:25.968Z,79.98
2023-04-10T18:40:56.426Z,80.29
2023-04-10T18:43:29.905Z,80.38
2023-04-10T18:46:02.419Z,80.42
2023-04-10T18:48:30.057Z,80.51
2023-04-10T18:50:56.850Z,80.68
2023-04-10T18:53:23.674Z,80.73
2023-04-10T18:55:51.367Z,80.69
2023-04-10T18:58:19.288Z,80.98
2023-04-10T19:00:46.999Z,81.11
2023-04-10T19:03:16.336Z,81.00
2023-04-10T19:05:46.085Z,81.03
2023-04-10T19:08:15.247Z,80.83
2023-04-10T19:10:42.780Z,80.55
2023-04-10T19:13:11.355Z,80.09
2023-04-10T19:15:43.296Z,79.59
2023-04-10T19:18:12.399Z,79.00
2023-04-10T19:20:52.818Z,78.70
2023-04-10T19:23:23.306Z,78.32
2023-04-10T19:25:54.788Z,77.55
2023-04-10T19:28:22.539Z,77.30
2023-04-10T19:31:09.471Z,76.71
2023-04-10T19:33:38.694Z,76.36
2023-04-10T19:36:08.356Z,76.12
2023-04-10T19:38:35.846Z,75.62
2023-04-10T19:41:14.592Z,75.57
2023-04-10T19:43:41.556Z,75.37
2023-04-10T19:46:18.437Z,75.13
2023-04-10T19:48:48.081Z,74.77
2023-04-10T19:51:16.108Z,74.78
2023-04-10T19:53:44.244Z,74.20
2023-04-10T19:56:11.088Z,73.75
2023-04-10T19:58:56.149Z,73.76
2023-04-10T20:01:25.279Z,73.35
2023-04-10T20:03:53.365Z,73.06
2023-04-10T20:06:21.164Z,72.84
2023-04-10T20:08:49.033Z,72.61
2023-04-10T20:11:15.847Z,72.24
2023-04-10T20:13:49.631Z,72.05
2023-04-10T20:16:16.541Z,71.97
2023-04-10T20:18:43.679Z,71.85
2023-04-10T20:21:10.573Z,71.68
2023-04-10T20:23:38.415Z,71.53
2023-04-10T20:26:05.683Z,71.38
2023-04-10T20:28:33.293Z,71.34
2023-04-10T20:31:00.498Z,71.20
2023-04-10T20:33:27.522Z,71.23
2023-04-10T20:35:54.384Z,71.17
2023-04-10T20:38:22.018Z,71.19
2023-04-10T20:40:48.940Z,71.10
2023-04-10T20:43:18.011Z,71.24
2023-04-10T20:45:45.441Z,71.18
2023-04-10T20:48:12.267Z,71.17
2023-04-10T20:50:48.750Z,71.00
2023-04-10T20:53:15.934Z,71.16
2023-04-10T20:55:43.294Z,70.81
2023-04-10T20:58:10.060Z,70.64
2023-04-10T21:00:40.920Z,70.47
2023-04-10T21:03:08.425Z,70.50
2023-04-10T21:05:40.396Z,70.50
2023-04-10T21:08:08.867Z,70.67
2023-04-10T21:10:43.232Z,70.73
2023-04-10T21:13:15.089Z,70.79
2023-04-10T21:15:45.212Z,70.85
2023-04-10T21:18:12.308Z,71.10
2023-04-10T21:20:49.907Z,71.17
2023-04-10T21:23:17.100Z,71.27
2023-04-10T21:25:54.915Z,71.42
2023-04-10T21:28:21.901Z,71.46
2023-04-10T21:30:49.094Z,71.70
2023-04-10T21:33:16.968Z,71.90
2023-04-10T21:35:44.297Z,72.05
2023-04-10T21:38:11.449Z,72.00
2023-04-10T21:40:38.531Z,72.00
2023-04-10T21:43:05.897Z,72.18
2023-04-10T21:45:36.868Z,72.52
2023-04-10T21:48:04.106Z,72.49
2023-04-10T21:50:31.113Z,72.68
2023-04-10T21:53:02.283Z,72.76
2023-04-10T21:55:29.405Z,72.99
2023-04-10T21:57:57.251Z,73.27
2023-04-10T22:00:24.316Z,73.21
2023-04-10T22:02:52.748Z,73.26
2023-04-10T22:05:20.331Z,73.53
2023-04-10T22:07:47.172Z,73.60
2023-04-10T22:10:14.265Z,73.55
2023-04-10T22:12:48.168Z,73.42
2023-04-10T22:15:18.768Z,73.64
2023-04-10T22:17:47.072Z,73.63
2023-04-10T22:20:16.138Z,73.90
2023-04-10T22:22:43.396Z,73.62
2023-04-10T22:25:10.413Z,73.73
2023-04-10T22:27:38.108Z,73.95
2023-04-10T22:30:06.560Z,73.95
2023-04-10T22:32:35.452Z,73.89
2023-04-10T22:35:04.257Z,73.98
2023-04-10T22:37:31.616Z,73.76
2023-04-10T22:40:00.065Z,73.76
2023-04-10T22:42:28.849Z,73.75
2023-04-10T22:44:57.549Z,73.68
2023-04-10T22:47:24.396Z,73.87
2023-04-10T22:49:52.271Z,73.80
2023-04-10T22:52:21.333Z,73.67
2023-04-10T22:54:48.601Z,73.41
2023-04-10T22:57:15.418Z,73.52
2023-04-10T22:59:43.979Z,73.39
2023-04-10T23:04:38.512Z,73.52
2023-04-10T23:07:06.037Z,73.77
2023-04-10T23:09:32.798Z,73.74
2023-04-10T23:12:04.772Z,73.82
2023-04-10T23:14:35.227Z,73.82
2023-04-10T23:17:02.286Z,73.84
2023-04-10T23:19:35.145Z,73.78
2023-04-10T23:22:02.415Z,73.83
2023-04-10T23:24:29.968Z,74.11
2023-04-10T23:27:06.237Z,74.01
2023-04-10T23:29:33.908Z,73.97
2023-04-10T23:32:00.784Z,74.27
2023-04-10T23:34:29.469Z,74.15
2023-04-10T23:36:57.591Z,74.16
2023-04-10T23:39:24.436Z,74.10
2023-04-10T23:41:55.403Z,74.20
2023-04-10T23:44:22.837Z,74.26
2023-04-10T23:46:50.184Z,74.35
2023-04-10T23:49:17.605Z,74.29
2023-04-10T23:51:44.692Z,74.36
2023-04-10T23:54:12.761Z,74.19
2023-04-10T23:56:40.173Z,74.05
2023-04-10T23:59:06.923Z,74.04
